Hendley, Nebraska
Current Conditions -  °F | °C
As of 10:53 AM on Thursday 30 Oct 2014 (Local Time) from KMCK Reporting Station
Clear Clear  
Wind Chill: 60°   Ceiling: Unl
Heat Index: 60°   Visibility: 10mi
Dew Point: 32°   Wind: 21mph
Humidity: 35%   Direction: 350°N
Pressure: 30.26"   Gusts: 25mph
Location:  40.13°N, 99.97°W
Report Text: KMCK 301553Z AUTO 35018G22KT 10SM CLR 16/00 A3026 RMK AO2 SLP242 T01560000
Loading
Personal Weather Stations






























Interactive Weather Map
Tropical Storm Tracking
New forecast layout! Learn more

10-Day Weather Forecast

Advertisements
Track Severe Weather on mobile